Time;durP1;ratioP1;P1;durP2;ratioP2;P2;SDS_P1;SDS_P2;PMS_P1;PMS_P2;Temp;Humidity;BMP_temperature;BMP_pressure;BME280_temperature;BME280_humidity;BME280_pressure;Samples;Min_cycle;Max_cycle;Signal;HPM_P1;HPM_P2
2023/04/30 00:01:43;;;;;;;;;;;;;;;15.32;57.31;99454.53;5111053;28;19916;-88
2023/04/30 00:04:08;;;;;;;;;;;;;;;15.27;57.94;99453.84;5105728;28;20454;-87
2023/04/30 00:06:33;;;;;;;;;;;;;;;15.30;56.56;99457.25;5101979;28;19920;-89
2023/04/30 00:08:59;;;;;;;;;;;;;;;15.29;55.72;99452.00;5103452;28;20010;-87
2023/04/30 00:11:24;;;;;;;;;;;;;;;15.26;56.16;99450.34;5097936;28;20002;-88
2023/04/30 00:13:50;;;;;;;;;;;;;;;15.11;56.67;99454.44;5098464;28;19916;-88
2023/04/30 00:16:16;;;;;;;;;;;;;;;15.22;56.85;99449.56;5081035;28;20009;-87
2023/04/30 00:18:41;;;;;;;;;;;;;;;15.05;57.46;99454.66;5097513;28;19915;-87
2023/04/30 00:21:06;;;;;;;;;;;;;;;15.00;58.20;99449.50;5100995;28;20010;-87
2023/04/30 00:23:32;;;;;;;;;;;;;;;14.97;57.86;99452.28;5097099;28;19912;-88
2023/04/30 00:25:57;;;;;;;;;;;;;;;14.76;57.46;99445.97;5112970;28;19912;-88
2023/04/30 00:28:22;;;;;;;;;;;;;;;14.68;57.40;99450.69;5108079;28;19998;-88
2023/04/30 00:30:48;;;;;;;;;;;;;;;14.59;57.46;99453.63;5091698;28;19919;-88
2023/04/30 00:33:13;;;;;;;;;;;;;;;14.49;57.50;99455.75;5094818;28;20009;-88
2023/04/30 00:35:38;;;;;;;;;;;;;;;14.45;57.89;99451.47;5108942;28;19919;-88
2023/04/30 00:38:04;;;;;;;;;;;;;;;14.53;56.87;99457.34;5111793;28;19938;-88
2023/04/30 00:40:29;;;;;;;;;;;;;;;14.47;56.90;99455.81;5112667;28;19976;-88
2023/04/30 00:42:54;;;;;;;;;;;;;;;14.26;56.70;99456.53;5112348;28;19965;-87
2023/04/30 00:45:21;;;;;;;;;;;;;;;14.17;56.22;99451.56;5111813;28;19969;-88
2023/04/30 00:47:46;;;;;;;;;;;;;;;14.18;56.18;99446.19;5110631;28;20005;-87
2023/04/30 00:50:14;;;;;;;;;;;;;;;14.32;55.24;99453.69;5101369;28;20002;-88
2023/04/30 00:52:40;;;;;;;;;;;;;;;14.38;54.55;99455.25;5110586;28;19915;-88
2023/04/30 00:55:06;;;;;;;;;;;;;;;14.37;54.38;99454.38;5108964;28;19916;-88
2023/04/30 00:57:32;;;;;;;;;;;;;;;14.49;54.44;99451.31;5093245;28;20346;-88
2023/04/30 00:59:58;;;;;;;;;;;;;;;14.64;54.17;99447.28;5100670;28;19912;-87
2023/04/30 01:02:23;;;;;;;;;;;;;;;14.66;54.12;99456.06;5109846;28;20399;-88
2023/04/30 01:04:49;;;;;;;;;;;;;;;14.56;53.55;99451.94;5093832;28;19914;-88
2023/04/30 01:07:15;;;;;;;;;;;;;;;14.55;54.09;99454.66;5111998;28;19929;-88
2023/04/30 01:09:40;;;;;;;;;;;;;;;14.65;53.90;99451.66;5112377;28;19942;-88
2023/04/30 01:12:06;;;;;;;;;;;;;;;14.68;53.38;99451.53;5111496;28;20354;-88
2023/04/30 01:14:38;;;;;;;;;;;;;;;14.68;53.87;99451.53;5111776;28;20460;-88
2023/04/30 01:17:19;;;;;;;;;;;;;;;14.76;53.99;99459.22;5093857;28;19926;-88
2023/04/30 01:19:45;;;;;;;;;;;;;;;14.80;54.02;99455.56;5111497;28;19969;-88
2023/04/30 01:22:33;;;;;;;;;;;;;;;14.71;54.41;99455.03;5092910;28;19912;-88
2023/04/30 01:24:58;;;;;;;;;;;;;;;14.84;54.03;99457.19;5009146;28;20372;-88
2023/04/30 01:27:44;;;;;;;;;;;;;;;14.86;54.29;99451.81;5009014;28;19962;-88
2023/04/30 01:30:10;;;;;;;;;;;;;;;14.76;55.27;99447.75;5008513;28;20399;-88
2023/04/30 01:32:36;;;;;;;;;;;;;;;14.85;55.95;99444.78;5008740;28;19917;-87
2023/04/30 01:35:01;;;;;;;;;;;;;;;14.83;55.29;99438.66;5008987;28;19931;-87
2023/04/30 01:37:29;;;;;;;;;;;;;;;14.75;55.31;99438.94;4992092;28;19921;-87
2023/04/30 01:40:21;;;;;;;;;;;;;;;14.64;55.40;99438.44;5009040;28;19925;-87
2023/04/30 01:42:46;;;;;;;;;;;;;;;14.58;54.83;99430.66;5008436;28;19922;-88
2023/04/30 01:45:18;;;;;;;;;;;;;;;14.43;54.91;99427.63;5008269;28;19921;-88
2023/04/30 01:47:46;;;;;;;;;;;;;;;14.22;56.02;99431.03;5008151;28;20323;-88
2023/04/30 01:50:11;;;;;;;;;;;;;;;14.33;55.97;99439.47;5009175;28;19913;-88
2023/04/30 01:52:48;;;;;;;;;;;;;;;14.56;55.63;99441.31;4991775;28;19955;-87
2023/04/30 01:55:17;;;;;;;;;;;;;;;14.47;56.61;99437.22;5015386;28;19920;-87
2023/04/30 01:57:56;;;;;;;;;;;;;;;14.38;56.37;99434.00;5016143;28;19914;-88
2023/04/30 02:00:21;;;;;;;;;;;;;;;14.37;55.88;99435.81;4992304;28;19920;-87
2023/04/30 02:02:47;;;;;;;;;;;;;;;14.30;57.12;99435.16;5093005;28;20250;-87
2023/04/30 02:05:12;;;;;;;;;;;;;;;14.34;57.23;99435.91;5092033;28;19916;-87
2023/04/30 02:07:44;;;;;;;;;;;;;;;14.27;57.01;99435.28;5110480;28;19916;-87
2023/04/30 02:10:11;;;;;;;;;;;;;;;14.24;57.34;99432.72;5110945;28;19918;-87
2023/04/30 02:12:36;;;;;;;;;;;;;;;14.31;57.56;99430.72;5110890;28;19927;-87
2023/04/30 02:15:02;;;;;;;;;;;;;;;14.39;56.55;99431.31;5111332;28;19916;-87
2023/04/30 02:17:27;;;;;;;;;;;;;;;14.39;56.83;99433.09;5110876;28;19987;-88
2023/04/30 02:19:53;;;;;;;;;;;;;;;14.43;57.16;99430.28;5110827;28;19947;-87
2023/04/30 02:22:18;;;;;;;;;;;;;;;14.39;57.26;99423.34;5091847;28;19941;-89
2023/04/30 02:24:43;;;;;;;;;;;;;;;14.29;57.65;99425.47;5111054;28;19919;-87
2023/04/30 02:27:09;;;;;;;;;;;;;;;14.22;59.04;99423.06;5113128;28;19968;-87
2023/04/30 02:29:34;;;;;;;;;;;;;;;14.20;59.12;99430.22;5114742;28;19916;-87
2023/04/30 02:32:00;;;;;;;;;;;;;;;14.17;58.86;99427.69;5114710;28;20404;-87
2023/04/30 02:34:25;;;;;;;;;;;;;;;14.26;58.04;99428.22;5115030;28;19911;-87
2023/04/30 02:36:51;;;;;;;;;;;;;;;14.30;58.27;99426.31;5114753;28;19911;-87
2023/04/30 02:39:16;;;;;;;;;;;;;;;14.44;57.72;99423.19;5095857;28;20433;-87
2023/04/30 02:41:42;;;;;;;;;;;;;;;14.39;57.36;99428.66;5114108;28;20002;-88
2023/04/30 02:44:07;;;;;;;;;;;;;;;14.40;57.64;99430.41;5114787;28;19911;-88
2023/04/30 02:46:32;;;;;;;;;;;;;;;14.28;58.27;99429.03;5106305;28;19912;-89
2023/04/30 02:48:58;;;;;;;;;;;;;;;14.23;59.43;99433.63;5100596;28;19919;-89
2023/04/30 02:51:23;;;;;;;;;;;;;;;14.12;59.98;99427.84;5113885;28;20257;-88
2023/04/30 02:53:48;;;;;;;;;;;;;;;14.15;59.49;99420.63;5114779;28;20350;-88
2023/04/30 02:56:14;;;;;;;;;;;;;;;14.04;60.04;99429.84;5098884;28;20351;-87
2023/04/30 02:58:39;;;;;;;;;;;;;;;13.97;60.46;99431.84;5111351;28;19949;-90
2023/04/30 03:01:05;;;;;;;;;;;;;;;13.98;60.46;99428.28;5112710;28;19951;-87
2023/04/30 03:03:30;;;;;;;;;;;;;;;14.01;59.93;99433.50;5113808;28;20404;-87
2023/04/30 03:05:58;;;;;;;;;;;;;;;13.89;60.34;99428.59;5113128;28;19915;-86
2023/04/30 03:08:23;;;;;;;;;;;;;;;13.77;61.09;99433.34;5113201;28;20369;-86
2023/04/30 03:10:48;;;;;;;;;;;;;;;13.65;61.40;99439.06;5113133;28;19919;-86
2023/04/30 03:13:14;;;;;;;;;;;;;;;13.65;60.86;99436.41;5113031;28;20013;-88
2023/04/30 03:15:40;;;;;;;;;;;;;;;13.60;60.80;99435.69;5113775;28;20452;-88
2023/04/30 03:18:05;;;;;;;;;;;;;;;13.33;61.34;99442.66;5113422;28;19934;-88
2023/04/30 03:20:31;;;;;;;;;;;;;;;13.31;61.80;99434.75;5113465;28;19968;-88
2023/04/30 03:22:56;;;;;;;;;;;;;;;13.47;61.67;99437.88;5113683;28;19919;-88
2023/04/30 03:25:21;;;;;;;;;;;;;;;13.40;62.20;99434.53;5095673;28;20438;-87
2023/04/30 03:27:46;;;;;;;;;;;;;;;13.50;62.09;99431.59;5113637;28;19919;-87
2023/04/30 03:30:12;;;;;;;;;;;;;;;13.55;62.04;99437.63;5113162;28;19912;-87
2023/04/30 03:32:38;;;;;;;;;;;;;;;13.59;62.23;99436.59;5112837;28;19912;-86
2023/04/30 03:35:03;;;;;;;;;;;;;;;13.73;61.42;99452.94;5113172;28;19919;-87
2023/04/30 03:37:29;;;;;;;;;;;;;;;13.66;61.77;99446.09;5112825;28;20392;-87
2023/04/30 03:39:54;;;;;;;;;;;;;;;13.60;61.93;99449.81;5113425;28;20415;-87
2023/04/30 03:42:20;;;;;;;;;;;;;;;13.76;61.49;99452.84;5113322;28;20368;-88
2023/04/30 03:44:45;;;;;;;;;;;;;;;13.81;59.82;99467.72;5113759;28;19908;-87
2023/04/30 03:47:10;;;;;;;;;;;;;;;13.70;60.09;99471.59;5094198;28;20043;-90
2023/04/30 03:49:36;;;;;;;;;;;;;;;13.86;59.85;99473.78;5079945;28;19916;-89
2023/04/30 03:52:02;;;;;;;;;;;;;;;13.94;58.98;99469.94;5104593;28;19908;-91
2023/04/30 03:54:27;;;;;;;;;;;;;;;14.00;58.96;99474.19;5094722;28;19919;-90
2023/04/30 03:56:53;;;;;;;;;;;;;;;14.00;59.10;99475.97;5094418;28;20389;-88
2023/04/30 03:59:18;;;;;;;;;;;;;;;14.05;59.62;99471.38;5109533;28;19963;-88
2023/04/30 04:01:43;;;;;;;;;;;;;;;14.08;59.89;99479.22;5112509;28;20006;-88
2023/04/30 04:04:09;;;;;;;;;;;;;;;14.16;59.63;99479.84;5112464;28;19916;-86
2023/04/30 04:06:34;;;;;;;;;;;;;;;14.09;60.06;99492.44;5092720;28;19915;-89
2023/04/30 04:09:00;;;;;;;;;;;;;;;14.14;60.05;99490.50;5112883;28;19942;-89
2023/04/30 04:11:25;;;;;;;;;;;;;;;14.20;60.01;99480.63;5111887;28;20030;-89
2023/04/30 04:13:51;;;;;;;;;;;;;;;14.27;59.98;99479.47;5113139;28;19911;-88
2023/04/30 04:16:16;;;;;;;;;;;;;;;14.35;59.83;99485.41;5112822;28;19912;-89
2023/04/30 04:18:41;;;;;;;;;;;;;;;14.42;59.40;99494.88;5112330;28;20006;-89
2023/04/30 04:21:07;;;;;;;;;;;;;;;14.42;59.33;99492.22;5093450;28;19938;-90
2023/04/30 04:23:33;;;;;;;;;;;;;;;14.53;57.85;99491.88;5112090;28;20290;-88
2023/04/30 04:25:59;;;;;;;;;;;;;;;14.58;58.26;99495.25;5112415;28;20021;-88
2023/04/30 04:28:24;;;;;;;;;;;;;;;14.63;58.02;99503.09;5112097;28;19923;-88
2023/04/30 04:30:51;;;;;;;;;;;;;;;14.45;57.30;99502.75;5111871;28;20002;-88
2023/04/30 04:33:17;;;;;;;;;;;;;;;14.48;57.05;99507.09;5111848;28;19918;-88
2023/04/30 04:35:42;;;;;;;;;;;;;;;14.45;57.49;99508.03;5111904;28;19919;-87
2023/04/30 04:38:08;;;;;;;;;;;;;;;14.60;58.01;99511.13;5112225;28;19912;-87
2023/04/30 04:40:34;;;;;;;;;;;;;;;14.54;58.94;99508.69;5112113;28;20308;-87
2023/04/30 04:42:59;;;;;;;;;;;;;;;14.56;59.70;99502.38;5112214;28;19911;-87
2023/04/30 04:45:25;;;;;;;;;;;;;;;14.64;58.65;99503.03;5112811;28;19926;-88
2023/04/30 04:47:51;;;;;;;;;;;;;;;14.72;59.05;99509.84;5111331;28;19915;-90
2023/04/30 04:50:16;;;;;;;;;;;;;;;14.80;59.22;99502.50;5111994;28;19911;-90
2023/04/30 04:52:42;;;;;;;;;;;;;;;14.97;59.10;99502.75;5112058;28;20373;-89
2023/04/30 04:55:07;;;;;;;;;;;;;;;15.08;59.16;99504.16;5111859;28;19912;-91
2023/04/30 04:57:33;;;;;;;;;;;;;;;15.29;58.92;99507.78;5094129;28;19967;-90
2023/04/30 04:59:59;;;;;;;;;;;;;;;15.04;56.58;99514.00;5111667;28;19919;-90
2023/04/30 05:02:25;;;;;;;;;;;;;;;15.01;57.69;99512.34;5093298;28;19912;-90
2023/04/30 05:04:50;;;;;;;;;;;;;;;15.22;58.12;99516.00;5111181;28;19971;-91
2023/04/30 05:07:19;;;;;;;;;;;;;;;15.26;55.34;99523.84;5110961;28;19950;-91
2023/04/30 05:09:45;;;;;;;;;;;;;;;15.51;54.54;99516.69;5111850;28;20442;-91
2023/04/30 05:12:11;;;;;;;;;;;;;;;15.58;54.81;99507.56;5107673;28;19903;-91
2023/04/30 05:14:36;;;;;;;;;;;;;;;15.77;54.91;99506.88;5133799;28;19972;-91
2023/04/30 05:17:02;;;;;;;;;;;;;;;15.98;54.02;99509.63;5121662;28;20275;-89
2023/04/30 05:19:27;;;;;;;;;;;;;;;16.02;53.61;99517.41;5089083;28;19922;-90
2023/04/30 05:21:53;;;;;;;;;;;;;;;16.39;53.08;99525.66;5129871;28;19918;-90
2023/04/30 05:24:18;;;;;;;;;;;;;;;16.51;52.33;99521.63;5122043;28;19915;-90
2023/04/30 05:26:43;;;;;;;;;;;;;;;16.58;50.17;99525.78;5129021;28;20400;-89
2023/04/30 05:29:10;;;;;;;;;;;;;;;16.40;50.73;99524.75;5128072;28;19959;-91
2023/04/30 05:31:36;;;;;;;;;;;;;;;16.54;49.52;99518.84;5123069;28;19976;-91
2023/04/30 05:34:01;;;;;;;;;;;;;;;16.38;47.89;99522.16;5111517;28;19915;-90
2023/04/30 05:36:27;;;;;;;;;;;;;;;16.27;49.16;99527.06;5110539;28;19916;-89
2023/04/30 05:38:53;;;;;;;;;;;;;;;16.48;49.87;99525.28;5111223;28;20006;-89
2023/04/30 05:41:18;;;;;;;;;;;;;;;16.95;48.54;99530.41;5111140;28;20377;-90
2023/04/30 05:43:44;;;;;;;;;;;;;;;17.27;46.91;99524.56;5110186;28;19923;-90
2023/04/30 05:46:09;;;;;;;;;;;;;;;17.44;49.17;99531.78;5092075;28;19915;-91
2023/04/30 05:48:34;;;;;;;;;;;;;;;17.73;46.45;99535.78;5091528;28;20006;-88
2023/04/30 05:51:00;;;;;;;;;;;;;;;17.95;45.49;99521.44;5110457;28;19951;-87
2023/04/30 05:53:25;;;;;;;;;;;;;;;17.39;46.64;99523.16;5110329;28;20397;-88
2023/04/30 05:55:51;;;;;;;;;;;;;;;17.34;46.95;99521.56;5110518;28;20007;-87
2023/04/30 05:58:16;;;;;;;;;;;;;;;17.58;45.56;99529.38;5110439;28;20372;-87
2023/04/30 06:00:42;;;;;;;;;;;;;;;17.49;46.41;99530.66;5111779;28;20397;-91
2023/04/30 06:03:07;;;;;;;;;;;;;;;18.00;46.89;99524.78;5113881;28;19938;-89
2023/04/30 06:05:32;;;;;;;;;;;;;;;18.64;45.99;99530.53;5110700;28;19912;-89
2023/04/30 06:07:57;;;;;;;;;;;;;;;18.75;44.80;99526.38;5094359;28;19995;-89
2023/04/30 06:10:23;;;;;;;;;;;;;;;18.75;43.93;99530.84;5094261;28;19936;-88
2023/04/30 06:12:48;;;;;;;;;;;;;;;19.07;43.93;99529.19;5094181;28;19916;-89
2023/04/30 06:15:14;;;;;;;;;;;;;;;19.17;42.90;99540.28;5100378;28;19916;-89
2023/04/30 06:17:39;;;;;;;;;;;;;;;19.31;41.91;99524.34;5114678;28;20736;-88
2023/04/30 06:20:05;;;;;;;;;;;;;;;19.46;41.86;99532.47;5096057;28;19973;-88
2023/04/30 06:22:31;;;;;;;;;;;;;;;19.84;41.05;99535.75;5114144;28;19915;-88
2023/04/30 06:24:56;;;;;;;;;;;;;;;20.15;39.91;99533.16;5114603;28;19915;-89
2023/04/30 06:27:22;;;;;;;;;;;;;;;20.52;39.98;99537.25;5096408;28;19935;-89
2023/04/30 06:29:47;;;;;;;;;;;;;;;20.22;41.79;99529.19;5114480;28;19915;-87
2023/04/30 06:32:13;;;;;;;;;;;;;;;20.48;39.76;99535.72;5113642;28;20367;-88
2023/04/30 06:34:38;;;;;;;;;;;;;;;20.76;38.97;99534.13;5096137;28;19916;-87
2023/04/30 06:37:03;;;;;;;;;;;;;;;20.99;38.58;99534.53;5105804;28;19923;-88
2023/04/30 06:39:29;;;;;;;;;;;;;;;21.24;38.78;99525.84;5095097;28;19915;-86
2023/04/30 06:41:54;;;;;;;;;;;;;;;20.99;38.89;99526.50;5112102;28;19916;-89
2023/04/30 06:44:20;;;;;;;;;;;;;;;20.29;40.53;99529.69;5095302;28;20379;-89
2023/04/30 06:46:45;;;;;;;;;;;;;;;20.77;40.50;99519.75;5109325;28;19918;-90
2023/04/30 06:49:10;;;;;;;;;;;;;;;20.92;38.43;99524.19;5111144;28;20352;-90
2023/04/30 06:51:36;;;;;;;;;;;;;;;21.10;39.25;99524.88;5112138;28;20395;-90
2023/04/30 06:54:01;;;;;;;;;;;;;;;21.53;38.62;99515.16;5097686;28;20422;-89
2023/04/30 06:56:26;;;;;;;;;;;;;;;21.59;37.92;99517.44;5102172;28;19919;-88
2023/04/30 06:58:52;;;;;;;;;;;;;;;21.68;36.65;99519.53;5110785;28;20384;-88
2023/04/30 07:01:17;;;;;;;;;;;;;;;21.77;37.68;99518.09;5113814;28;19919;-89
2023/04/30 07:03:43;;;;;;;;;;;;;;;22.15;35.95;99512.91;5111449;28;19923;-91
2023/04/30 07:06:08;;;;;;;;;;;;;;;22.30;35.43;99512.84;5102248;28;20326;-90
2023/04/30 07:08:34;;;;;;;;;;;;;;;22.00;36.86;99500.50;5112279;28;19919;-92
2023/04/30 07:10:59;;;;;;;;;;;;;;;22.04;38.24;99507.38;5096373;28;19916;-88
2023/04/30 07:13:25;;;;;;;;;;;;;;;22.32;37.67;99502.88;5115486;28;19930;-87
2023/04/30 07:15:50;;;;;;;;;;;;;;;22.88;37.50;99502.72;5111562;28;20006;-89
2023/04/30 07:18:16;;;;;;;;;;;;;;;23.25;37.30;99502.84;5109210;28;19926;-88
2023/04/30 07:20:41;;;;;;;;;;;;;;;23.14;34.89;99500.03;5115013;28;19923;-88
2023/04/30 07:23:06;;;;;;;;;;;;;;;22.95;35.26;99503.97;5111336;28;19912;-89
2023/04/30 07:25:32;;;;;;;;;;;;;;;23.01;35.51;99500.00;5114051;28;19927;-88
2023/04/30 07:27:57;;;;;;;;;;;;;;;23.16;36.84;99492.75;5116564;28;20377;-88
2023/04/30 07:30:22;;;;;;;;;;;;;;;23.05;38.89;99497.00;5113606;28;19915;-88
2023/04/30 07:32:49;;;;;;;;;;;;;;;23.18;40.26;99502.41;5112669;28;19916;-88
2023/04/30 07:35:14;;;;;;;;;;;;;;;23.81;40.35;99497.03;5099486;28;19958;-87
2023/04/30 07:37:40;;;;;;;;;;;;;;;23.21;39.15;99495.97;5110394;28;19947;-85
2023/04/30 07:40:08;;;;;;;;;;;;;;;23.48;39.08;99498.53;5112250;28;19911;-88
2023/04/30 07:42:33;;;;;;;;;;;;;;;23.22;38.80;99500.38;5110958;28;20123;-87
2023/04/30 07:44:59;;;;;;;;;;;;;;;23.61;37.47;99493.09;5103367;28;20304;-88
2023/04/30 07:47:25;;;;;;;;;;;;;;;22.94;37.85;99502.28;5090279;28;19919;-88
2023/04/30 07:49:50;;;;;;;;;;;;;;;23.06;38.46;99498.72;5098851;28;21303;-87
2023/04/30 07:52:16;;;;;;;;;;;;;;;23.20;40.65;99499.59;5097540;28;19911;-89
2023/04/30 07:54:41;;;;;;;;;;;;;;;23.35;37.64;99493.13;5086485;28;20305;-86
2023/04/30 07:57:06;;;;;;;;;;;;;;;22.98;37.46;99492.16;5106144;28;19916;-87
2023/04/30 07:59:32;;;;;;;;;;;;;;;22.65;38.83;99496.22;5093363;28;20441;-87
2023/04/30 08:01:57;;;;;;;;;;;;;;;22.31;40.32;99488.59;5094037;28;20378;-87
2023/04/30 08:04:23;;;;;;;;;;;;;;;22.82;39.46;99495.91;5081709;28;19916;-87
2023/04/30 08:06:48;;;;;;;;;;;;;;;23.48;37.14;99484.19;5091649;28;19983;-87
2023/04/30 08:09:14;;;;;;;;;;;;;;;23.97;35.74;99483.31;5092895;28;19916;-86
2023/04/30 08:11:40;;;;;;;;;;;;;;;23.81;38.24;99482.72;5106689;28;19938;-88
2023/04/30 08:14:06;;;;;;;;;;;;;;;23.45;38.26;99484.41;5108940;28;20440;-88
2023/04/30 08:16:31;;;;;;;;;;;;;;;22.68;37.00;99478.03;5099895;28;20003;-86
2023/04/30 08:18:57;;;;;;;;;;;;;;;22.43;39.57;99476.19;5104956;28;19918;-87
2023/04/30 08:21:22;;;;;;;;;;;;;;;22.82;39.41;99476.25;5101603;28;20305;-86
2023/04/30 08:23:48;;;;;;;;;;;;;;;22.90;38.71;99473.88;5087631;28;19915;-87
2023/04/30 08:26:13;;;;;;;;;;;;;;;22.93;38.20;99470.13;5105509;28;19973;-84
2023/04/30 08:28:39;;;;;;;;;;;;;;;23.23;38.92;99462.59;5111096;28;19912;-84
2023/04/30 08:31:04;;;;;;;;;;;;;;;23.68;37.31;99463.88;5099343;28;20347;-87
2023/04/30 08:33:30;;;;;;;;;;;;;;;23.58;36.02;99461.88;5098973;28;19980;-85
2023/04/30 08:35:56;;;;;;;;;;;;;;;23.39;37.03;99459.66;5099145;28;19912;-87
2023/04/30 08:38:22;;;;;;;;;;;;;;;23.42;36.70;99461.28;5091081;28;19912;-87
2023/04/30 08:40:55;;;;;;;;;;;;;;;22.70;35.44;99462.66;5099492;28;19973;-85
2023/04/30 08:43:21;;;;;;;;;;;;;;;22.78;36.99;99464.81;5103692;28;19916;-86
2023/04/30 08:45:48;;;;;;;;;;;;;;;22.73;36.64;99463.44;5108905;28;19915;-87
2023/04/30 08:48:16;;;;;;;;;;;;;;;22.79;34.40;99457.63;5096874;28;20322;-89
2023/04/30 08:50:41;;;;;;;;;;;;;;;23.04;36.41;99449.53;5107793;28;19916;-86
2023/04/30 08:53:09;;;;;;;;;;;;;;;23.35;36.85;99455.47;5090279;28;19912;-85
2023/04/30 08:55:35;;;;;;;;;;;;;;;23.55;34.33;99453.16;5097353;28;20294;-86
2023/04/30 08:58:01;;;;;;;;;;;;;;;24.23;34.45;99453.56;5108911;28;19912;-85
2023/04/30 09:00:26;;;;;;;;;;;;;;;23.14;34.43;99454.31;5098761;28;20057;-92
2023/04/30 09:02:52;;;;;;;;;;;;;;;23.36;34.14;99449.13;5090494;28;20429;-88
2023/04/30 09:05:17;;;;;;;;;;;;;;;23.21;34.29;99447.53;5096270;28;19916;-87
2023/04/30 09:07:44;;;;;;;;;;;;;;;23.49;35.45;99441.00;5111210;28;19912;-87
2023/04/30 09:10:16;;;;;;;;;;;;;;;24.02;36.70;99440.75;5105983;28;19958;-86
2023/04/30 09:12:44;;;;;;;;;;;;;;;24.58;32.68;99436.59;5089478;28;20406;-87
2023/04/30 09:15:11;;;;;;;;;;;;;;;24.80;32.07;99436.59;5080561;28;20309;-87
2023/04/30 09:17:36;;;;;;;;;;;;;;;24.28;31.24;99435.22;5110534;28;19976;-84
2023/04/30 09:20:06;;;;;;;;;;;;;;;23.57;31.32;99426.97;5096527;28;20016;-86
2023/04/30 09:22:34;;;;;;;;;;;;;;;22.95;33.59;99441.28;5089535;28;19947;-86
2023/04/30 09:24:59;;;;;;;;;;;;;;;22.76;32.81;99436.34;5090465;28;19961;-85
2023/04/30 09:27:25;;;;;;;;;;;;;;;22.65;32.69;99429.88;5089804;28;19908;-85
2023/04/30 09:29:51;;;;;;;;;;;;;;;23.32;33.12;99417.16;5106472;28;19920;-86
2023/04/30 09:32:16;;;;;;;;;;;;;;;23.60;33.67;99419.56;5104165;28;20014;-86
2023/04/30 09:34:42;;;;;;;;;;;;;;;23.19;31.56;99423.44;5109855;28;19908;-85
2023/04/30 09:37:08;;;;;;;;;;;;;;;22.89;33.04;99421.94;5110429;28;20310;-85
2023/04/30 09:39:44;;;;;;;;;;;;;;;23.00;32.30;99417.59;5109969;28;19912;-85
2023/04/30 09:42:10;;;;;;;;;;;;;;;23.21;32.72;99417.94;5110735;28;19937;-86
2023/04/30 09:44:35;;;;;;;;;;;;;;;;;;5110463;28;20432;-86
2023/04/30 09:47:02;;;;;;;;;;;;;;;24.37;31.88;99412.09;5110492;28;19946;-87
2023/04/30 09:49:27;;;;;;;;;;;;;;;24.57;29.18;99411.44;5092139;28;19970;-90
2023/04/30 09:52:00;;;;;;;;;;;;;;;23.35;29.34;99398.94;5110159;28;19973;-86
2023/04/30 09:54:29;;;;;;;;;;;;;;;22.79;30.99;99406.53;5109777;28;19998;-86
2023/04/30 09:56:56;;;;;;;;;;;;;;;22.62;30.30;99405.88;5110207;28;20385;-85
2023/04/30 09:59:26;;;;;;;;;;;;;;;23.23;31.95;99399.84;5110166;28;19985;-87
2023/04/30 10:01:52;;;;;;;;;;;;;;;23.55;30.33;99394.78;5109793;28;20427;-85
2023/04/30 10:04:18;;;;;;;;;;;;;;;23.75;29.76;99393.31;5110240;28;19981;-84
2023/04/30 10:06:43;;;;;;;;;;;;;;;24.38;31.34;99393.13;5109731;28;19960;-85
2023/04/30 10:09:10;;;;;;;;;;;;;;;24.95;29.75;99382.44;5090854;28;19920;-84
2023/04/30 10:11:36;;;;;;;;;;;;;;;25.55;30.93;99381.19;5109596;28;20351;-85
2023/04/30 10:14:03;;;;;;;;;;;;;;;25.22;28.31;99384.75;5110079;28;19916;-84
2023/04/30 10:16:28;;;;;;;;;;;;;;;24.97;30.21;99377.78;5109675;28;20474;-86
2023/04/30 10:18:56;;;;;;;;;;;;;;;24.64;31.13;99382.19;5110080;28;19971;-86
2023/04/30 10:21:23;;;;;;;;;;;;;;;24.27;29.86;99377.78;5109790;28;19915;-85
2023/04/30 10:23:48;;;;;;;;;;;;;;;24.10;29.02;99379.06;5109873;28;19911;-84
2023/04/30 10:26:15;;;;;;;;;;;;;;;23.63;30.21;99378.06;5110058;28;20385;-84
2023/04/30 10:28:41;;;;;;;;;;;;;;;23.86;30.11;99379.09;5109622;28;19916;-84
2023/04/30 10:31:09;;;;;;;;;;;;;;;24.21;31.57;99374.69;5109768;28;20342;-84
2023/04/30 10:33:48;;;;;;;;;;;;;;;24.44;29.35;99368.38;5109653;28;20010;-85
2023/04/30 10:36:16;;;;;;;;;;;;;;;24.02;30.35;99373.41;5109572;28;20147;-85
2023/04/30 10:38:43;;;;;;;;;;;;;;;23.99;31.22;99370.94;5110188;28;20381;-84
2023/04/30 10:41:08;;;;;;;;;;;;;;;23.67;29.24;99357.19;5109252;28;19915;-85
2023/04/30 10:43:35;;;;;;;;;;;;;;;23.94;30.14;99363.22;5109783;28;19926;-86
2023/04/30 10:46:01;;;;;;;;;;;;;;;23.76;30.58;99364.56;5109500;28;20280;-87
2023/04/30 10:48:28;;;;;;;;;;;;;;;23.62;32.06;99360.22;5113572;28;19919;-86
2023/04/30 10:50:59;;;;;;;;;;;;;;;23.98;31.44;99363.84;5113379;28;20456;-86
2023/04/30 10:53:26;;;;;;;;;;;;;;;24.01;29.89;99368.16;5112864;28;19915;-85
2023/04/30 10:55:52;;;;;;;;;;;;;;;24.08;29.44;99362.16;5113480;28;19912;-85
2023/04/30 10:58:30;;;;;;;;;;;;;;;24.40;30.73;99363.34;5113173;28;19964;-86
2023/04/30 11:01:00;;;;;;;;;;;;;;;24.72;30.15;99354.59;5112969;28;19912;-86
2023/04/30 11:03:27;;;;;;;;;;;;;;;25.08;28.72;99350.78;5113370;28;19912;-85
2023/04/30 11:05:52;;;;;;;;;;;;;;;25.57;27.49;99345.09;5113567;28;19912;-84
2023/04/30 11:08:20;;;;;;;;;;;;;;;25.70;27.23;99346.66;5112764;28;19919;-85
2023/04/30 11:11:13;;;;;;;;;;;;;;;25.53;29.80;99342.66;5112483;28;19915;-85
2023/04/30 11:13:46;;;;;;;;;;;;;;;25.41;31.15;99338.25;5089761;28;20006;-86
2023/04/30 11:16:11;;;;;;;;;;;;;;;25.52;30.50;99331.97;5092392;28;19943;-85
2023/04/30 11:18:41;;;;;;;;;;;;;;;25.62;28.06;99324.81;5092422;28;20008;-84
2023/04/30 11:21:07;;;;;;;;;;;;;;;25.57;28.74;99321.63;5102958;28;19984;-84
2023/04/30 11:23:34;;;;;;;;;;;;;;;23.98;29.83;99328.81;5112755;28;19912;-86
2023/04/30 11:25:59;;;;;;;;;;;;;;;24.02;31.16;99329.44;5112808;28;20344;-87
2023/04/30 11:28:26;;;;;;;;;;;;;;;24.13;29.93;99324.94;5112314;28;19914;-85
2023/04/30 11:30:57;;;;;;;;;;;;;;;23.90;32.88;99329.41;5113067;28;19918;-86
2023/04/30 11:33:27;;;;;;;;;;;;;;;24.00;31.29;99326.84;5112418;28;20377;-86
2023/04/30 11:35:55;;;;;;;;;;;;;;;24.09;30.96;99325.31;5112452;28;19915;-86
2023/04/30 11:38:36;;;;;;;;;;;;;;;24.46;34.96;99317.88;5112413;28;19916;-86
2023/04/30 11:41:05;;;;;;;;;;;;;;;24.66;31.36;99320.88;5112326;28;19916;-89
2023/04/30 11:43:31;;;;;;;;;;;;;;;24.70;33.89;99318.78;5112686;28;19931;-86
2023/04/30 11:46:03;;;;;;;;;;;;;;;24.78;30.65;99322.59;5080100;28;20278;-88
2023/04/30 11:48:33;;;;;;;;;;;;;;;24.27;29.54;99326.56;5091829;28;19958;-88
2023/04/30 11:50:58;;;;;;;;;;;;;;;24.22;29.92;99323.38;5092631;28;19908;-86
2023/04/30 11:53:28;;;;;;;;;;;;;;;24.36;31.42;99316.91;5091783;28;19926;-86
2023/04/30 11:55:54;;;;;;;;;;;;;;;24.44;32.11;99316.31;5092233;28;20340;-86
2023/04/30 11:58:20;;;;;;;;;;;;;;;24.54;36.40;99319.97;5090155;28;20366;-86
2023/04/30 12:00:46;;;;;;;;;;;;;;;24.52;32.04;99316.56;5091673;28;20109;-85
2023/04/30 12:03:13;;;;;;;;;;;;;;;24.83;28.88;99314.16;5091570;28;19912;-86
2023/04/30 12:05:39;;;;;;;;;;;;;;;25.10;30.35;99307.47;5091072;28;19981;-87
2023/04/30 12:08:06;;;;;;;;;;;;;;;25.24;31.63;99304.53;5091092;28;20301;-87
2023/04/30 12:10:32;;;;;;;;;;;;;;;25.28;29.86;99302.44;5091363;28;19916;-87
2023/04/30 12:12:58;;;;;;;;;;;;;;;25.36;33.79;99295.47;5091736;28;19919;-86
2023/04/30 12:15:25;;;;;;;;;;;;;;;25.03;28.57;99288.25;5097600;28;20012;-86
2023/04/30 12:17:52;;;;;;;;;;;;;;;25.06;31.91;99285.31;5111425;28;19951;-87
2023/04/30 12:20:17;;;;;;;;;;;;;;;25.51;31.37;99281.66;5111236;28;19916;-87
2023/04/30 12:22:44;;;;;;;;;;;;;;;25.63;33.84;99277.91;5111376;28;19912;-86
2023/04/30 12:25:13;;;;;;;;;;;;;;;25.49;28.24;99278.22;5093303;28;19911;-87
2023/04/30 12:27:49;;;;;;;;;;;;;;;25.92;28.97;99267.34;5090823;28;19932;-85
2023/04/30 12:30:18;;;;;;;;;;;;;;;25.82;29.78;99276.34;5104417;28;19915;-87
2023/04/30 12:32:44;;;;;;;;;;;;;;;25.95;29.92;99270.75;5103691;28;19973;-85
2023/04/30 12:35:17;;;;;;;;;;;;;;;25.73;28.56;99270.75;5086276;28;19916;-84
2023/04/30 12:37:47;;;;;;;;;;;;;;;25.02;32.45;99267.63;5106336;28;20399;-85
2023/04/30 12:40:13;;;;;;;;;;;;;;;24.71;30.59;99269.28;5111433;28;19968;-87
2023/04/30 12:42:38;;;;;;;;;;;;;;;24.43;31.46;99280.41;5095445;28;19934;-86
2023/04/30 12:45:04;;;;;;;;;;;;;;;23.78;30.03;99285.38;5104311;28;20337;-86